createdAt,value
2022-12-05T00:02:02.316Z,96.65
2022-12-05T00:04:30.683Z,99.35
2022-12-05T00:06:58.823Z,99.32
2022-12-05T00:09:28.345Z,99.68
2022-12-05T00:11:57.809Z,100.30
2022-12-05T00:14:26.090Z,100.78
2022-12-05T00:16:54.274Z,97.80
2022-12-05T00:19:22.659Z,99.78
2022-12-05T00:21:50.953Z,103.10
2022-12-05T00:24:19.910Z,98.40
2022-12-05T00:26:49.426Z,99.07
2022-12-05T00:29:18.244Z,97.40
2022-12-05T00:31:46.576Z,99.10
2022-12-05T00:34:15.016Z,102.38
2022-12-05T00:36:45.201Z,96.03
2022-12-05T00:39:15.275Z,99.93
2022-12-05T00:41:44.167Z,101.68
2022-12-05T00:44:15.340Z,97.43
2022-12-05T00:46:44.586Z,95.72
2022-12-05T00:49:13.839Z,100.15
2022-12-05T00:51:43.910Z,98.30
2022-12-05T00:54:14.052Z,98.38
2022-12-05T00:56:42.457Z,101.47
2022-12-05T00:59:15.832Z,102.85
2022-12-05T01:01:45.378Z,106.40
2022-12-05T01:04:15.094Z,100.05
2022-12-05T01:06:43.979Z,98.68
2022-12-05T01:09:14.749Z,100.35
2022-12-05T01:11:43.893Z,106.28
2022-12-05T01:14:13.580Z,99.35
2022-12-05T01:16:44.839Z,101.32
2022-12-05T01:19:15.287Z,93.93
2022-12-05T01:21:43.962Z,97.18
2022-12-05T01:24:12.879Z,100.78
2022-12-05T01:26:41.783Z,101.57
2022-12-05T01:29:10.228Z,96.25
2022-12-05T01:31:39.405Z,102.18
2022-12-05T01:34:12.107Z,99.50
2022-12-05T01:36:43.353Z,96.90
2022-12-05T01:39:13.529Z,100.55
2022-12-05T01:41:44.163Z,100.55
2022-12-05T01:44:45.844Z,100.10
2022-12-05T01:47:18.155Z,101.97
2022-12-05T01:49:50.230Z,102.03
2022-12-05T01:52:21.874Z,103.30
2022-12-05T01:54:52.764Z,101.00
2022-12-05T01:57:21.056Z,103.43
2022-12-05T02:00:01.645Z,97.18
2022-12-05T02:02:41.539Z,95.47
2022-12-05T02:05:17.158Z,99.70
2022-12-05T02:07:46.483Z,97.03
2022-12-05T02:10:17.021Z,99.10
2022-12-05T02:12:46.065Z,98.22
2022-12-05T02:15:24.671Z,101.28
2022-12-05T02:18:05.683Z,97.38
2022-12-05T02:20:50.635Z,98.10
2022-12-05T02:23:32.746Z,102.40
2022-12-05T02:26:39.486Z,97.47
2022-12-05T02:29:43.361Z,99.78
2022-12-05T02:32:21.088Z,96.70
2022-12-05T02:34:57.185Z,99.90
2022-12-05T02:37:32.668Z,98.28
2022-12-05T02:40:07.561Z,98.32
2022-12-05T02:42:42.539Z,96.00
2022-12-05T02:45:14.647Z,97.47
2022-12-05T02:47:48.770Z,97.13
2022-12-05T02:50:23.371Z,95.57
2022-12-05T02:52:55.036Z,96.28
2022-12-05T02:55:25.147Z,95.47
2022-12-05T02:57:59.257Z,98.35
2022-12-05T03:00:30.595Z,99.57
2022-12-05T03:03:01.645Z,97.25
2022-12-05T03:05:42.000Z,98.18
2022-12-05T03:08:17.800Z,95.97
2022-12-05T03:10:48.316Z,95.32
2022-12-05T03:13:22.541Z,92.70
2022-12-05T03:15:57.744Z,91.50
2022-12-05T03:18:31.477Z,92.95
2022-12-05T03:21:05.042Z,90.70
2022-12-05T03:23:37.178Z,92.47
2022-12-05T03:26:14.409Z,87.82
2022-12-05T03:29:01.596Z,87.95
2022-12-05T03:31:40.780Z,88.78
2022-12-05T03:34:17.257Z,86.43
2022-12-05T03:36:49.245Z,85.38
2022-12-05T03:39:23.670Z,84.40
2022-12-05T03:42:02.430Z,86.53
2022-12-05T03:44:36.946Z,84.65
2022-12-05T03:47:09.984Z,87.80
2022-12-05T03:49:44.666Z,85.68
2022-12-05T03:52:19.212Z,83.47
2022-12-05T03:54:50.534Z,85.10
2022-12-05T03:57:23.149Z,84.20
2022-12-05T03:59:57.847Z,87.50
2022-12-05T04:02:29.582Z,87.25
2022-12-05T04:05:02.819Z,83.65
2022-12-05T04:07:33.071Z,83.75
2022-12-05T04:10:07.255Z,85.47
2022-12-05T04:12:37.435Z,89.22
2022-12-05T04:15:11.623Z,85.45
2022-12-05T04:17:50.492Z,86.22
2022-12-05T04:20:43.900Z,87.22
2022-12-05T04:23:12.333Z,82.25
2022-12-05T04:25:50.864Z,86.55
2022-12-05T04:28:28.279Z,88.15
2022-12-05T04:31:04.339Z,86.15
2022-12-05T04:33:40.823Z,84.93
2022-12-05T04:36:14.789Z,85.13
2022-12-05T04:38:48.634Z,82.63
2022-12-05T04:41:22.466Z,84.72
2022-12-05T04:43:52.332Z,83.80
2022-12-05T04:46:22.748Z,81.15
2022-12-05T04:48:54.967Z,80.65
2022-12-05T04:51:27.626Z,77.57
2022-12-05T04:56:29.044Z,76.93
2022-12-05T04:58:57.303Z,82.45
2022-12-05T05:01:34.039Z,80.07
2022-12-05T05:04:08.366Z,75.30
2022-12-05T05:06:40.194Z,77.00
2022-12-05T05:09:08.559Z,77.73
2022-12-05T05:11:37.432Z,73.60
2022-12-05T05:14:06.013Z,71.38
2022-12-05T05:16:36.510Z,73.90
2022-12-05T05:19:05.539Z,73.45
2022-12-05T05:21:36.436Z,72.05
2022-12-05T05:24:07.320Z,73.20
2022-12-05T05:26:37.850Z,73.40
2022-12-05T05:29:06.444Z,71.05
2022-12-05T05:31:34.709Z,73.05
2022-12-05T05:34:09.069Z,67.53
2022-12-05T05:36:38.351Z,69.53
2022-12-05T05:39:13.050Z,66.00
2022-12-05T05:41:41.186Z,64.25
2022-12-05T05:44:09.354Z,66.13
2022-12-05T05:46:37.888Z,64.15
2022-12-05T05:49:06.739Z,63.90
2022-12-05T05:51:34.877Z,65.32
2022-12-05T05:54:03.238Z,62.05
2022-12-05T05:56:34.970Z,61.03
2022-12-05T05:59:04.616Z,61.20
2022-12-05T06:01:35.155Z,59.42
2022-12-05T06:04:03.720Z,63.15
2022-12-05T06:06:32.074Z,57.65
2022-12-05T06:09:00.188Z,60.35
2022-12-05T06:11:29.123Z,57.78
2022-12-05T06:14:01.055Z,55.70
2022-12-05T06:16:30.366Z,57.73
2022-12-05T06:18:58.758Z,56.88
2022-12-05T06:21:27.565Z,58.28
2022-12-05T06:23:55.964Z,52.65
2022-12-05T06:26:24.389Z,56.45
2022-12-05T06:28:55.420Z,56.08
2022-12-05T06:31:31.086Z,57.53
2022-12-05T06:34:02.920Z,59.20
2022-12-05T06:36:31.707Z,56.00
2022-12-05T06:39:00.692Z,56.47
2022-12-05T06:41:28.935Z,58.45
2022-12-05T06:44:01.871Z,57.92
2022-12-05T06:46:31.861Z,56.92
2022-12-05T06:49:00.673Z,57.28
2022-12-05T06:51:29.109Z,56.80
2022-12-05T06:53:57.405Z,58.42
2022-12-05T06:56:25.520Z,58.83
2022-12-05T06:58:55.521Z,61.30
2022-12-05T07:01:41.504Z,60.33
2022-12-05T07:04:15.500Z,60.47
2022-12-05T07:06:50.152Z,59.53
2022-12-05T07:09:20.148Z,60.80
2022-12-05T07:11:49.169Z,59.03
2022-12-05T07:14:45.695Z,57.88
2022-12-05T07:17:07.996Z,58.58
2022-12-05T07:19:37.706Z,59.35
2022-12-05T07:22:13.718Z,58.83
2022-12-05T07:24:44.076Z,59.38
2022-12-05T07:27:12.155Z,58.67
2022-12-05T07:29:40.434Z,59.35
2022-12-05T07:32:08.730Z,57.97
2022-12-05T07:34:39.474Z,59.50
2022-12-05T07:37:08.081Z,58.10
2022-12-05T07:39:36.284Z,58.22
2022-12-05T07:42:04.331Z,63.25
2022-12-05T07:44:34.886Z,58.97
2022-12-05T07:47:03.016Z,57.75
2022-12-05T07:49:32.367Z,65.22
2022-12-05T07:52:03.163Z,60.28
2022-12-05T07:54:31.304Z,56.35
2022-12-05T07:56:59.508Z,55.28
2022-12-05T07:59:27.666Z,79.82
2022-12-05T08:01:56.026Z,100.10
2022-12-05T08:04:24.167Z,82.63
2022-12-05T08:06:52.265Z,56.63
2022-12-05T08:09:23.847Z,53.55
2022-12-05T08:11:52.949Z,54.80
2022-12-05T08:14:21.615Z,54.35
2022-12-05T08:16:49.976Z,67.40
2022-12-05T08:19:18.154Z,56.30
2022-12-05T08:21:47.007Z,70.28
2022-12-05T08:24:17.369Z,86.40
2022-12-05T08:26:49.554Z,76.13
2022-12-05T08:29:21.271Z,65.35
2022-12-05T08:31:51.613Z,58.38
2022-12-05T08:34:21.458Z,62.97
2022-12-05T08:36:50.326Z,59.85
2022-12-05T08:39:20.590Z,60.63
2022-12-05T08:41:52.657Z,60.78
2022-12-05T08:44:21.020Z,58.58
2022-12-05T08:46:51.588Z,66.07
2022-12-05T08:49:20.301Z,55.03
2022-12-05T08:51:48.450Z,58.08
2022-12-05T08:54:17.631Z,59.70
2022-12-05T08:56:45.705Z,59.70
2022-12-05T08:59:18.736Z,68.13
2022-12-05T09:01:47.049Z,56.65
2022-12-05T09:04:15.518Z,60.63
2022-12-05T09:06:43.647Z,66.75
2022-12-05T09:09:15.313Z,67.35
2022-12-05T09:11:50.847Z,120.20
2022-12-05T09:14:20.606Z,140.77
2022-12-05T09:16:49.159Z,93.68
2022-12-05T09:19:25.203Z,53.65
2022-12-05T09:21:59.924Z,50.30
2022-12-05T09:24:28.768Z,59.63
2022-12-05T09:26:56.943Z,62.95
2022-12-05T09:29:29.423Z,61.17
2022-12-05T09:31:59.952Z,61.17
2022-12-05T09:34:28.139Z,56.70
2022-12-05T09:37:16.357Z,60.28
2022-12-05T09:39:46.251Z,93.72
2022-12-05T09:42:39.917Z,57.95
2022-12-05T09:45:19.888Z,53.42
2022-12-05T09:47:56.289Z,56.13
2022-12-05T09:50:26.653Z,53.78
2022-12-05T09:53:13.202Z,52.28
2022-12-05T09:55:46.964Z,62.97
2022-12-05T09:58:29.871Z,65.82
2022-12-05T10:01:05.487Z,56.15
2022-12-05T10:03:43.686Z,51.55
2022-12-05T10:06:18.705Z,52.00
2022-12-05T10:09:13.229Z,51.78
2022-12-05T10:11:47.718Z,51.15
2022-12-05T10:14:24.222Z,52.40
2022-12-05T10:16:57.579Z,52.70
2022-12-05T10:19:29.864Z,51.80
2022-12-05T10:22:03.352Z,49.80
2022-12-05T10:24:38.177Z,52.33
2022-12-05T10:27:08.687Z,52.83
2022-12-05T10:29:40.496Z,53.72
2022-12-05T10:32:18.281Z,52.13
2022-12-05T10:34:46.849Z,54.10
2022-12-05T10:37:18.035Z,50.72
2022-12-05T10:39:47.325Z,49.63
2022-12-05T10:42:17.731Z,48.47
2022-12-05T10:44:46.399Z,52.75
2022-12-05T10:47:15.917Z,50.25
2022-12-05T10:49:44.637Z,48.00
2022-12-05T10:52:15.235Z,48.05
2022-12-05T10:54:48.290Z,51.30
2022-12-05T10:57:24.838Z,49.63
2022-12-05T10:59:53.332Z,49.10
2022-12-05T11:02:27.050Z,51.63
2022-12-05T11:04:56.779Z,50.67
2022-12-05T11:07:30.260Z,50.60
2022-12-05T11:09:58.967Z,49.42
2022-12-05T11:12:30.212Z,50.22
2022-12-05T11:15:02.011Z,53.88
2022-12-05T11:17:34.929Z,50.33
2022-12-05T11:22:36.101Z,52.30
2022-12-05T11:25:25.520Z,53.55
2022-12-05T11:27:57.115Z,51.30
2022-12-05T11:30:31.377Z,57.05
2022-12-05T11:33:20.750Z,52.78
2022-12-05T11:35:50.363Z,55.88
2022-12-05T11:38:25.996Z,61.55
2022-12-05T11:40:58.544Z,59.97
2022-12-05T11:43:55.064Z,54.33
2022-12-05T11:46:35.367Z,58.33
2022-12-05T11:49:25.718Z,54.88
2022-12-05T11:52:04.652Z,56.35
2022-12-05T11:55:06.669Z,56.47
2022-12-05T11:58:12.140Z,57.63
2022-12-05T12:00:48.496Z,57.42
2022-12-05T12:03:53.807Z,55.13
2022-12-05T12:06:30.283Z,55.30
2022-12-05T12:09:16.595Z,56.58
2022-12-05T12:11:50.752Z,56.50
2022-12-05T12:14:28.290Z,58.67
2022-12-05T12:17:10.839Z,57.40
2022-12-05T12:20:10.940Z,57.90
2022-12-05T12:22:54.324Z,55.63
2022-12-05T12:25:31.818Z,59.05
2022-12-05T12:28:14.210Z,60.30
2022-12-05T12:30:58.770Z,57.78
2022-12-05T12:33:33.512Z,58.05
2022-12-05T12:36:11.258Z,54.47
2022-12-05T12:38:53.537Z,57.08
2022-12-05T12:41:41.641Z,56.17
2022-12-05T12:44:33.286Z,56.10
2022-12-05T12:47:04.770Z,57.22
2022-12-05T12:49:53.273Z,58.83
2022-12-05T12:52:23.984Z,59.65
2022-12-05T12:55:16.767Z,59.97
2022-12-05T13:00:24.841Z,61.85
2022-12-05T13:03:01.317Z,60.45
2022-12-05T13:05:35.499Z,62.85
2022-12-05T13:08:12.858Z,65.95
2022-12-05T13:10:45.203Z,68.53
2022-12-05T13:13:19.137Z,66.68
2022-12-05T13:15:51.265Z,66.75
2022-12-05T13:18:20.940Z,68.03
2022-12-05T13:20:51.312Z,64.25
2022-12-05T13:23:23.000Z,70.43
2022-12-05T13:25:55.304Z,67.85
2022-12-05T13:28:32.829Z,69.72
2022-12-05T13:31:04.847Z,71.07
2022-12-05T13:33:36.961Z,67.85
2022-12-05T13:36:28.812Z,69.55
2022-12-05T13:39:16.364Z,68.60
2022-12-05T13:42:04.747Z,113.30
2022-12-05T13:44:39.032Z,66.32
2022-12-05T13:47:16.710Z,99.15
2022-12-05T13:49:50.460Z,65.78
2022-12-05T13:54:56.281Z,65.25
2022-12-05T13:57:50.966Z,66.60
2022-12-05T14:00:31.476Z,68.03
2022-12-05T14:03:06.077Z,75.28
2022-12-05T14:05:42.913Z,81.20
2022-12-05T14:08:53.482Z,78.25
2022-12-05T14:11:21.900Z,71.70
2022-12-05T14:13:51.772Z,69.80
2022-12-05T14:16:47.516Z,70.65
2022-12-05T14:19:52.653Z,70.75
2022-12-05T14:22:53.427Z,73.47
2022-12-05T14:25:35.480Z,74.75
2022-12-05T14:28:19.385Z,79.22
2022-12-05T14:31:09.503Z,79.32
2022-12-05T14:33:37.661Z,79.57
2022-12-05T14:36:08.930Z,78.63
2022-12-05T14:38:38.519Z,82.05
2022-12-05T14:41:15.104Z,82.50
2022-12-05T14:43:44.132Z,74.00
2022-12-05T14:46:25.882Z,76.65
2022-12-05T14:48:55.976Z,81.10
2022-12-05T14:51:46.941Z,74.50
2022-12-05T14:54:18.095Z,77.03
2022-12-05T14:56:49.525Z,75.53
2022-12-05T14:59:27.069Z,74.45
2022-12-05T15:01:59.375Z,78.95
2022-12-05T15:04:35.696Z,73.43
2022-12-05T15:07:09.218Z,77.68
2022-12-05T15:09:55.701Z,79.93
2022-12-05T15:12:28.194Z,74.15
2022-12-05T15:15:05.755Z,76.60
2022-12-05T15:17:39.948Z,78.47
2022-12-05T15:20:17.270Z,80.15
2022-12-05T15:22:47.947Z,77.30
2022-12-05T15:25:27.967Z,78.95
2022-12-05T15:27:58.724Z,72.28
2022-12-05T15:30:30.864Z,80.30
2022-12-05T15:33:00.800Z,75.53
2022-12-05T15:35:35.252Z,77.75
2022-12-05T15:38:10.555Z,74.53
2022-12-05T15:40:38.779Z,88.05
2022-12-05T15:43:30.071Z,91.00
2022-12-05T15:46:23.819Z,90.95
2022-12-05T15:48:59.575Z,82.30
2022-12-05T15:51:34.141Z,77.00
2022-12-05T15:54:07.676Z,88.32
2022-12-05T15:56:40.448Z,90.05
2022-12-05T16:01:44.656Z,83.63
2022-12-05T16:04:29.225Z,83.22
2022-12-05T16:07:04.223Z,87.32
2022-12-05T16:09:34.483Z,76.80
2022-12-05T16:12:06.032Z,77.35
2022-12-05T16:14:58.933Z,79.10
2022-12-05T16:17:25.599Z,81.70
2022-12-05T16:20:11.260Z,79.55
2022-12-05T16:22:46.170Z,79.68
2022-12-05T16:25:16.543Z,78.70
2022-12-05T16:27:56.630Z,78.47
2022-12-05T16:30:25.690Z,82.00
2022-12-05T16:33:04.536Z,80.30
2022-12-05T16:35:40.044Z,82.93
2022-12-05T16:38:14.485Z,87.05
2022-12-05T16:40:53.833Z,78.40
2022-12-05T16:43:29.112Z,78.40
2022-12-05T16:45:59.776Z,87.75
2022-12-05T16:48:29.914Z,84.57
2022-12-05T16:51:18.321Z,87.97
2022-12-05T16:53:48.036Z,82.88
2022-12-05T16:56:19.576Z,80.60
2022-12-05T16:58:48.670Z,83.50
2022-12-05T17:01:20.061Z,82.47
2022-12-05T17:03:48.493Z,79.82
2022-12-05T17:06:19.151Z,84.18
2022-12-05T17:08:47.215Z,83.53
2022-12-05T17:11:19.409Z,81.05
2022-12-05T17:13:48.654Z,76.57
2022-12-05T17:16:18.122Z,79.13
2022-12-05T17:18:46.596Z,81.55
2022-12-05T17:21:18.888Z,80.32
2022-12-05T17:23:48.430Z,81.00
2022-12-05T17:26:18.806Z,84.05
2022-12-05T17:28:47.685Z,81.38
2022-12-05T17:31:17.765Z,84.72
2022-12-05T17:33:46.797Z,83.53
2022-12-05T17:36:15.514Z,82.38
2022-12-05T17:38:45.692Z,82.57
2022-12-05T17:41:18.240Z,84.13
2022-12-05T17:43:46.597Z,87.40
2022-12-05T17:46:18.925Z,88.40
2022-12-05T17:48:48.056Z,84.47
2022-12-05T17:51:16.711Z,89.50
2022-12-05T17:53:47.341Z,86.88
2022-12-05T17:56:16.079Z,85.15
2022-12-05T17:58:44.353Z,87.13
2022-12-05T18:01:15.960Z,87.60
2022-12-05T18:03:44.288Z,84.05
2022-12-05T18:06:12.586Z,80.05
2022-12-05T18:08:43.790Z,81.75
2022-12-05T18:13:43.163Z,77.82
2022-12-05T18:16:11.447Z,75.25
2022-12-05T18:18:40.172Z,76.15
2022-12-05T18:21:09.992Z,75.57
2022-12-05T18:23:39.299Z,77.20
2022-12-05T18:26:08.630Z,77.80
2022-12-05T18:28:39.586Z,74.15
2022-12-05T18:31:10.422Z,69.20
2022-12-05T18:33:40.935Z,68.82
2022-12-05T18:36:11.391Z,69.95
2022-12-05T18:38:40.744Z,70.28
2022-12-05T18:41:08.985Z,70.35
2022-12-05T18:43:40.008Z,71.30
2022-12-05T18:46:08.325Z,71.43
2022-12-05T18:48:40.853Z,68.60
2022-12-05T18:51:15.706Z,67.55
2022-12-05T18:53:51.612Z,66.97
2022-12-05T18:56:24.988Z,62.90
2022-12-05T18:58:59.483Z,66.75
2022-12-05T19:01:28.365Z,65.18
2022-12-05T19:03:59.521Z,70.30
2022-12-05T19:06:31.242Z,65.38
2022-12-05T19:09:02.153Z,61.13
2022-12-05T19:11:30.692Z,62.78
2022-12-05T19:14:03.793Z,65.35
2022-12-05T19:16:34.039Z,61.08
2022-12-05T19:19:03.720Z,62.58
2022-12-05T19:21:33.744Z,61.40
2022-12-05T19:24:03.955Z,62.38
2022-12-05T19:26:32.194Z,60.63
2022-12-05T19:29:00.388Z,63.72
2022-12-05T19:31:31.527Z,61.55
2022-12-05T19:34:03.907Z,63.17
2022-12-05T19:36:35.483Z,59.35
2022-12-05T19:39:10.456Z,61.80
2022-12-05T19:41:38.498Z,60.27
2022-12-05T19:44:09.328Z,61.65
2022-12-05T19:46:38.850Z,58.33
2022-12-05T19:49:09.593Z,57.17
2022-12-05T19:51:38.302Z,55.38
2022-12-05T19:54:07.631Z,55.35
2022-12-05T19:56:37.335Z,54.08
2022-12-05T19:59:06.721Z,54.72
2022-12-05T20:01:37.120Z,54.35
2022-12-05T20:04:09.207Z,55.88
2022-12-05T20:06:43.060Z,54.17
2022-12-05T20:09:13.512Z,55.78
2022-12-05T20:11:43.902Z,56.60
2022-12-05T20:14:14.443Z,55.33
2022-12-05T20:16:42.698Z,58.30
2022-12-05T20:19:14.658Z,56.85
2022-12-05T20:21:44.319Z,58.55
2022-12-05T20:24:12.605Z,59.78
2022-12-05T20:26:42.270Z,60.03
2022-12-05T20:29:10.908Z,59.67
2022-12-05T20:31:40.433Z,57.53
2022-12-05T20:34:13.305Z,56.28
2022-12-05T20:36:43.745Z,53.90
2022-12-05T20:39:15.288Z,51.75
2022-12-05T20:41:43.825Z,52.20
2022-12-05T20:44:14.688Z,52.42
2022-12-05T20:46:42.865Z,53.90
2022-12-05T20:49:12.363Z,50.22
2022-12-05T20:51:44.713Z,54.17
2022-12-05T20:54:13.713Z,54.20
2022-12-05T20:56:42.262Z,50.65
2022-12-05T20:59:13.351Z,49.47
2022-12-05T21:01:41.961Z,47.55
2022-12-05T21:04:10.485Z,45.47
2022-12-05T21:06:42.799Z,47.65
2022-12-05T21:09:15.859Z,43.72
2022-12-05T21:11:44.054Z,43.05
2022-12-05T21:14:12.791Z,43.25
2022-12-05T21:16:41.195Z,44.15
2022-12-05T21:19:09.808Z,42.63
2022-12-05T21:21:38.066Z,41.63
2022-12-05T21:24:07.599Z,43.08
2022-12-05T21:26:37.575Z,44.00
2022-12-05T21:29:07.328Z,43.28
2022-12-05T21:31:37.434Z,40.83
2022-12-05T21:34:08.015Z,40.38
2022-12-05T21:36:37.807Z,40.40
2022-12-05T21:39:06.822Z,38.60
2022-12-05T21:41:36.463Z,40.03
2022-12-05T21:44:05.239Z,38.42
2022-12-05T21:46:33.754Z,37.33
2022-12-05T21:49:01.990Z,38.00
2022-12-05T21:51:30.164Z,36.90
2022-12-05T21:53:58.472Z,35.45
2022-12-05T21:56:26.611Z,34.83
2022-12-05T21:58:56.065Z,36.40
2022-12-05T22:01:26.337Z,34.13
2022-12-05T22:03:59.375Z,32.95
2022-12-05T22:06:28.357Z,31.45
2022-12-05T22:08:56.883Z,31.25
2022-12-05T22:11:25.755Z,31.15
2022-12-05T22:13:55.266Z,32.55
2022-12-05T22:16:29.184Z,31.27
2022-12-05T22:19:00.443Z,31.50
2022-12-05T22:21:33.711Z,31.90
2022-12-05T22:24:01.931Z,33.53
2022-12-05T22:26:30.043Z,32.30
2022-12-05T22:28:59.535Z,33.83
2022-12-05T22:31:27.746Z,34.03
2022-12-05T22:33:55.858Z,32.70
2022-12-05T22:36:24.508Z,32.88
2022-12-05T22:38:52.654Z,34.97
2022-12-05T22:41:22.681Z,34.75
2022-12-05T22:43:54.696Z,33.83
2022-12-05T22:46:24.749Z,34.57
2022-12-05T22:48:53.298Z,33.45
2022-12-05T22:51:23.960Z,34.13
2022-12-05T22:53:52.869Z,33.63
2022-12-05T22:56:27.190Z,35.37
2022-12-05T22:58:56.340Z,34.00
2022-12-05T23:01:27.785Z,36.08
2022-12-05T23:03:56.975Z,34.00
2022-12-05T23:06:25.250Z,34.15
2022-12-05T23:08:53.443Z,31.35
2022-12-05T23:11:22.741Z,33.13
2022-12-05T23:13:54.777Z,31.60
2022-12-05T23:16:29.304Z,29.40
2022-12-05T23:18:59.676Z,28.55
2022-12-05T23:21:29.965Z,28.55
2022-12-05T23:24:00.738Z,27.00
2022-12-05T23:26:31.104Z,29.35
2022-12-05T23:28:59.380Z,28.40
2022-12-05T23:31:28.932Z,29.05
2022-12-05T23:34:02.723Z,26.40
2022-12-05T23:36:31.777Z,27.23
2022-12-05T23:39:01.572Z,27.45
2022-12-05T23:41:30.699Z,26.13
2022-12-05T23:43:59.859Z,26.80
2022-12-05T23:46:30.133Z,26.20
2022-12-05T23:48:58.362Z,26.00
2022-12-05T23:51:28.425Z,25.20
2022-12-05T23:54:00.944Z,24.15
2022-12-05T23:56:31.103Z,26.48
2022-12-05T23:58:59.390Z,27.52
